METAR

Aeronautical MET Report METAR

METAR description (Slovak)

28.08.2016 - 00:00 UTC

METAR LZIB 280000Z 01004KT CAVOK 18/15 Q1020=
METAR LZKZ 280000Z 35002KT CAVOK 16/13 Q1022=
METAR LZPP 280000Z AUTO 02006KT 9999 NCD 17/15 Q1020=
METAR LZSL 280000Z 00000KT CAVOK 13/12 Q1023=
METAR LZTT 280000Z 31003KT CAVOK 11/10 Q1023=
METAR LZZI 280000Z 09003KT 040V110 CAVOK 14/13 Q1022=

27.08.2016 - 23:30 UTC

METAR LZIB 272330Z 04004KT CAVOK 17/15 Q1020=
METAR LZKZ 272330Z 36003KT CAVOK 16/13 Q1022=
METAR LZPP 272330Z AUTO 01007KT 9999 NCD 17/15 Q1020=
METAR LZSL 272330Z 00000KT CAVOK 13/13 Q1023=
METAR LZTT 272330Z 28007KT CAVOK 12/10 Q1024=
METAR LZZI 272330Z VRB02KT CAVOK 14/13 Q1022=

28.08.2016 - 00:00 UTC

METAR LZMC 280000Z NIL=
METAR LZPW 280000Z AUTO 19005KT 9999 ////// 14/12
Q1022=

 

 

skok na menu ↑


skok na začiatok stránky ↑